Pinto, Utah
Current Conditions -  °F | °C
As of 11:53 AM on Thursday 30 Oct 2014 (Local Time) from KCDC Reporting Station
Clear Clear  
Wind Chill: 60°   Ceiling: Unl
Heat Index: 60°   Visibility: 10mi
Dew Point: 21°   Wind: 3mph
Humidity: 22%   Direction: NA
Pressure: 30.27"   Gusts: NA
Location:  37.8476°N, 113.744°W
Report Text: KCDC 301753Z AUTO VRB03KT 10SM CLR 16/M06 A3027 RMK AO2 SLP217 T01561061 10156 21033 58003 TSNO
Loading
Personal Weather Stations






























Interactive Weather Map
Tropical Storm Tracking
New forecast layout! Learn more

10-Day Weather Forecast

Advertisements
Track Severe Weather on mobile